createdAt,value
2022-08-05T00:01:36.160Z,16.83
2022-08-05T00:04:15.308Z,16.88
2022-08-05T00:06:43.043Z,16.89
2022-08-05T00:09:13.188Z,17.01
2022-08-05T00:11:49.404Z,16.79
2022-08-05T00:14:22.375Z,16.80
2022-08-05T00:16:54.561Z,16.80
2022-08-05T00:19:22.661Z,16.81
2022-08-05T00:21:50.152Z,16.76
2022-08-05T00:24:24.106Z,16.76
2022-08-05T00:26:52.847Z,16.64
2022-08-05T00:29:25.658Z,16.67
2022-08-05T00:32:10.942Z,16.60
2022-08-05T00:34:43.361Z,16.56
2022-08-05T00:37:35.414Z,16.58
2022-08-05T00:40:17.763Z,16.51
2022-08-05T00:42:54.399Z,16.44
2022-08-05T00:45:28.120Z,16.50
2022-08-05T00:48:05.291Z,16.50
2022-08-05T00:50:32.587Z,16.52
2022-08-05T00:52:59.590Z,16.51
2022-08-05T00:55:42.624Z,16.37
2022-08-05T00:58:13.610Z,16.28
2022-08-05T01:00:40.418Z,16.25
2022-08-05T01:03:08.894Z,16.34
2022-08-05T01:05:35.857Z,16.46
2022-08-05T01:08:40.148Z,16.32
2022-08-05T01:10:59.745Z,16.10
2022-08-05T01:14:27.818Z,16.08
2022-08-05T01:17:10.980Z,16.12
2022-08-05T01:20:00.770Z,16.08
2022-08-05T01:22:35.747Z,16.07
2022-08-05T01:25:40.356Z,15.99
2022-08-05T01:28:11.282Z,15.98
2022-08-05T01:30:53.858Z,15.91
2022-08-05T01:33:25.200Z,15.92
2022-08-05T01:35:53.527Z,15.94
2022-08-05T01:38:27.101Z,15.98
2022-08-05T01:40:58.144Z,15.85
2022-08-05T01:43:24.833Z,15.84
2022-08-05T01:45:56.192Z,15.71
2022-08-05T01:48:25.105Z,15.65
2022-08-05T01:50:51.823Z,15.54
2022-08-05T01:53:37.350Z,15.54
2022-08-05T01:56:05.380Z,15.53
2022-08-05T01:58:40.812Z,15.55
2022-08-05T02:01:12.633Z,15.60
2022-08-05T02:03:42.408Z,15.54
2022-08-05T02:06:33.844Z,15.44
2022-08-05T02:08:58.838Z,15.37
2022-08-05T02:11:33.210Z,15.42
2022-08-05T02:14:03.133Z,15.51
2022-08-05T02:16:34.865Z,15.47
2022-08-05T02:19:27.663Z,15.44
2022-08-05T02:21:59.046Z,15.46
2022-08-05T02:24:28.214Z,15.41
2022-08-05T02:26:56.917Z,15.34
2022-08-05T02:29:59.135Z,15.24
2022-08-05T02:32:11.635Z,15.12
2022-08-05T02:34:46.432Z,15.14
2022-08-05T02:37:22.041Z,15.13
2022-08-05T02:39:51.735Z,15.15
2022-08-05T02:42:25.996Z,15.26
2022-08-05T02:44:54.165Z,15.25
2022-08-05T02:47:21.425Z,15.18
2022-08-05T02:49:48.147Z,15.18
2022-08-05T02:52:25.985Z,15.11
2022-08-05T02:55:01.991Z,15.04
2022-08-05T02:58:09.415Z,15.01
2022-08-05T03:00:18.746Z,14.99
2022-08-05T03:02:45.420Z,14.97
2022-08-05T03:05:12.237Z,14.94
2022-08-05T03:08:01.007Z,14.92
2022-08-05T03:10:26.091Z,14.96
2022-08-05T03:12:53.021Z,14.94
2022-08-05T03:15:20.222Z,14.94
2022-08-05T03:17:46.947Z,14.80
2022-08-05T03:20:13.902Z,14.79
2022-08-05T03:22:44.070Z,14.74
2022-08-05T03:25:32.612Z,14.72
2022-08-05T03:28:01.506Z,14.70
2022-08-05T03:30:33.698Z,14.73
2022-08-05T03:33:01.855Z,14.76
2022-08-05T03:35:28.854Z,14.79
2022-08-05T03:37:59.300Z,14.88
2022-08-05T03:40:31.952Z,14.95
2022-08-05T03:42:59.530Z,14.98
2022-08-05T03:45:57.188Z,14.97
2022-08-05T03:48:29.107Z,14.89
2022-08-05T03:52:38.875Z,14.69
2022-08-05T03:55:51.843Z,14.61
2022-08-05T03:56:58.975Z,14.57
2022-08-05T03:59:46.960Z,14.53
2022-08-05T04:02:38.271Z,14.64
2022-08-05T04:05:04.707Z,14.66
2022-08-05T04:07:36.829Z,14.68
2022-08-05T04:10:23.526Z,14.69
2022-08-05T04:12:54.292Z,14.81
2022-08-05T04:15:24.539Z,14.85
2022-08-05T04:17:57.198Z,14.91
2022-08-05T04:20:24.280Z,14.97
2022-08-05T04:22:50.935Z,14.91
2022-08-05T04:25:17.778Z,14.94
2022-08-05T04:27:57.613Z,14.96
2022-08-05T04:30:26.622Z,14.90
2022-08-05T04:32:53.407Z,14.90
2022-08-05T04:35:20.170Z,14.87
2022-08-05T04:38:01.091Z,14.84
2022-08-05T04:40:32.817Z,14.84
2022-08-05T04:42:59.535Z,14.78
2022-08-05T04:45:48.351Z,14.87
2022-08-05T04:48:18.592Z,14.77
2022-08-05T04:51:03.674Z,14.84
2022-08-05T04:53:38.888Z,14.94
2022-08-05T04:56:15.441Z,15.06
2022-08-05T04:58:55.807Z,15.09
2022-08-05T05:02:05.470Z,15.25
2022-08-05T05:04:09.758Z,15.25
2022-08-05T05:06:42.284Z,15.26
2022-08-05T05:09:14.129Z,15.30
2022-08-05T05:11:55.596Z,15.27
2022-08-05T05:14:28.128Z,15.36
2022-08-05T05:16:59.438Z,15.46
2022-08-05T05:19:26.629Z,15.69
2022-08-05T05:22:22.967Z,15.76
2022-08-05T05:24:57.470Z,15.77
2022-08-05T05:27:45.221Z,15.70
2022-08-05T05:30:28.713Z,15.76
2022-08-05T05:32:57.068Z,15.84
2022-08-05T05:35:29.051Z,15.85
2022-08-05T05:38:02.455Z,15.94
2022-08-05T05:40:29.894Z,16.01
2022-08-05T05:42:57.099Z,16.09
2022-08-05T05:45:24.559Z,16.25
2022-08-05T05:48:06.762Z,16.43
2022-08-05T05:50:35.661Z,16.51
2022-08-05T05:53:22.518Z,16.56
2022-08-05T05:55:51.980Z,16.86
2022-08-05T05:58:31.926Z,16.95
2022-08-05T06:01:02.199Z,17.32
2022-08-05T06:04:02.121Z,17.36
2022-08-05T06:06:34.708Z,17.43
2022-08-05T06:09:03.227Z,17.54
2022-08-05T06:11:31.823Z,17.65
2022-08-05T06:14:00.391Z,17.85
2022-08-05T06:16:32.878Z,18.32
2022-08-05T06:19:05.653Z,18.68
2022-08-05T06:21:36.949Z,18.88
2022-08-05T06:24:12.193Z,18.98
2022-08-05T06:26:51.464Z,19.05
2022-08-05T06:29:25.146Z,19.12
2022-08-05T06:32:24.792Z,19.15
2022-08-05T06:34:53.485Z,19.20
2022-08-05T06:37:55.603Z,19.24
2022-08-05T06:40:10.511Z,19.33
2022-08-05T06:42:39.867Z,19.43
2022-08-05T06:45:08.838Z,19.47
2022-08-05T06:48:37.044Z,19.55
2022-08-05T06:50:23.716Z,19.62
2022-08-05T06:53:03.465Z,19.79
2022-08-05T06:55:37.480Z,20.03
2022-08-05T06:58:19.925Z,20.20
2022-08-05T07:00:59.842Z,20.46
2022-08-05T07:03:34.766Z,20.77
2022-08-05T07:09:40.478Z,21.93
2022-08-05T07:12:17.490Z,22.50
2022-08-05T07:14:54.081Z,22.59
2022-08-05T07:18:29.176Z,22.64
2022-08-05T07:22:00.585Z,23.11
2022-08-05T07:43:33.301Z,27.30
2022-08-05T07:46:01.653Z,27.50
2022-08-05T07:49:00.650Z,27.75
2022-08-05T07:51:23.355Z,26.82
2022-08-05T07:54:02.833Z,27.88
2022-08-05T07:56:59.911Z,28.22
2022-08-05T07:59:17.268Z,28.62
2022-08-05T08:01:57.644Z,27.41
2022-08-05T08:07:59.114Z,26.31
2022-08-05T08:10:27.434Z,26.11
2022-08-05T08:12:54.024Z,26.92
2022-08-05T08:15:37.219Z,26.65
2022-08-05T08:18:14.315Z,26.78
2022-08-05T08:21:00.108Z,26.93
2022-08-05T08:24:01.279Z,27.24
2022-08-05T08:26:14.955Z,27.13
2022-08-05T08:28:59.628Z,27.01
2022-08-05T08:31:28.280Z,26.79
2022-08-05T08:33:59.652Z,27.14
2022-08-05T08:36:38.778Z,27.94
2022-08-05T08:39:15.351Z,28.38
2022-08-05T08:42:34.445Z,28.62
2022-08-05T08:45:23.263Z,28.98
2022-08-05T08:48:06.146Z,29.50
2022-08-05T08:51:03.700Z,30.15
2022-08-05T08:53:45.234Z,29.98
2022-08-05T08:56:12.524Z,29.42
2022-08-05T08:58:48.009Z,29.65
2022-08-05T09:01:57.492Z,29.60
2022-08-05T09:05:38.913Z,30.19
2022-08-05T09:08:03.418Z,30.87
2022-08-05T09:10:32.219Z,30.60
2022-08-05T09:13:04.523Z,30.00
2022-08-05T09:15:32.130Z,30.40
2022-08-05T09:18:06.851Z,30.65
2022-08-05T09:20:37.658Z,31.48
2022-08-05T09:23:09.894Z,30.75
2022-08-05T09:26:03.068Z,31.03
2022-08-05T09:28:32.092Z,31.23
2022-08-05T09:31:18.178Z,31.86
2022-08-05T09:34:03.367Z,31.41
2022-08-05T09:36:56.205Z,32.11
2022-08-05T09:39:52.252Z,31.20
2022-08-05T09:42:24.142Z,31.46
2022-08-05T09:47:49.103Z,30.98
2022-08-05T09:50:37.594Z,31.66
2022-08-05T09:53:15.754Z,32.24
2022-08-05T09:56:03.699Z,32.36
2022-08-05T09:58:32.212Z,32.30
2022-08-05T10:01:13.586Z,32.65
2022-08-05T10:04:02.091Z,32.27
2022-08-05T10:06:31.145Z,31.87
2022-08-05T10:09:25.150Z,32.02
2022-08-05T10:11:55.277Z,32.05
2022-08-05T10:14:32.241Z,31.92
2022-08-05T10:17:19.952Z,32.29
2022-08-05T10:20:03.778Z,32.58
2022-08-05T10:22:37.962Z,32.51
2022-08-05T10:25:09.992Z,32.85
2022-08-05T10:28:12.791Z,32.93
2022-08-05T10:32:48.395Z,33.30
2022-08-05T10:33:14.903Z,33.48
2022-08-05T10:35:44.081Z,33.49
2022-08-05T10:38:11.827Z,32.68
2022-08-05T10:40:51.456Z,31.80
2022-08-05T10:43:47.503Z,31.87
2022-08-05T10:46:16.821Z,32.27
2022-08-05T10:48:58.107Z,32.17
2022-08-05T10:51:28.547Z,32.39
2022-08-05T10:54:01.085Z,32.12
2022-08-05T10:56:47.464Z,32.57
2022-08-05T11:00:04.323Z,33.04
2022-08-05T11:02:14.532Z,32.69
2022-08-05T11:05:00.228Z,32.22
2022-08-05T11:07:32.959Z,32.37
2022-08-05T11:10:22.432Z,32.15
2022-08-05T11:12:55.631Z,32.14
2022-08-05T11:15:23.457Z,31.88
2022-08-05T11:18:30.164Z,32.18
2022-08-05T11:20:59.231Z,32.36
2022-08-05T11:24:03.166Z,32.28
2022-08-05T11:26:28.904Z,32.29
2022-08-05T11:29:12.123Z,32.50
2022-08-05T11:31:57.148Z,32.65
2022-08-05T11:34:51.805Z,32.47
2022-08-05T11:38:30.027Z,32.40
2022-08-05T11:41:14.169Z,31.81
2022-08-05T11:44:02.809Z,32.38
2022-08-05T11:46:37.801Z,32.86
2022-08-05T11:49:24.772Z,32.77
2022-08-05T11:51:51.961Z,32.91
2022-08-05T11:54:33.457Z,32.81
2022-08-05T11:57:01.731Z,32.83
2022-08-05T11:59:49.782Z,32.67
2022-08-05T12:02:30.475Z,32.34
2022-08-05T12:05:00.064Z,32.52
2022-08-05T12:08:02.699Z,32.66
2022-08-05T12:10:13.888Z,32.64
2022-08-05T12:12:55.387Z,32.65
2022-08-05T12:15:38.291Z,32.59
2022-08-05T12:18:11.001Z,32.52
2022-08-05T12:20:39.259Z,32.58
2022-08-05T12:23:10.233Z,32.31
2022-08-05T12:26:09.405Z,32.52
2022-08-05T12:28:39.177Z,32.22
2022-08-05T12:31:05.966Z,32.37
2022-08-05T12:33:37.194Z,32.07
2022-08-05T12:36:07.908Z,32.10
2022-08-05T12:38:39.652Z,32.07
2022-08-05T12:41:13.345Z,32.03
2022-08-05T12:43:55.353Z,31.86
2022-08-05T12:46:33.035Z,31.76
2022-08-05T12:49:19.964Z,31.63
2022-08-05T12:52:13.860Z,31.40
2022-08-05T12:54:46.526Z,31.20
2022-08-05T12:57:16.435Z,31.19
2022-08-05T13:01:58.670Z,31.45
2022-08-05T13:02:35.977Z,31.58
2022-08-05T13:05:05.907Z,31.71
2022-08-05T13:07:57.572Z,31.83
2022-08-05T13:10:19.414Z,32.02
2022-08-05T13:12:57.175Z,32.00
2022-08-05T13:15:41.294Z,32.01
2022-08-05T13:18:19.857Z,31.61
2022-08-05T13:20:47.605Z,31.48
2022-08-05T13:23:18.016Z,31.34
2022-08-05T13:25:52.837Z,31.26
2022-08-05T13:28:27.194Z,31.21
2022-08-05T13:30:53.933Z,31.33
2022-08-05T13:34:21.274Z,31.21
2022-08-05T13:36:10.692Z,31.21
2022-08-05T13:38:41.904Z,31.05
2022-08-05T13:41:10.548Z,31.06
2022-08-05T13:43:45.034Z,30.87
2022-08-05T13:46:50.544Z,30.94
2022-08-05T13:49:12.040Z,31.29
2022-08-05T13:51:41.078Z,31.54
2022-08-05T13:54:13.238Z,31.65
2022-08-05T13:56:45.217Z,31.37
2022-08-05T13:59:24.098Z,31.43
2022-08-05T14:01:57.633Z,31.14
2022-08-05T14:04:29.173Z,31.21
2022-08-05T14:06:58.744Z,31.28
2022-08-05T14:09:45.947Z,31.35
2022-08-05T14:12:18.042Z,31.48
2022-08-05T14:14:59.122Z,31.62
2022-08-05T14:17:25.832Z,31.67
2022-08-05T14:19:59.665Z,31.70
2022-08-05T14:22:30.536Z,31.67
2022-08-05T14:25:06.111Z,31.52
2022-08-05T14:27:47.357Z,31.42
2022-08-05T14:30:20.478Z,31.18
2022-08-05T14:32:48.081Z,31.00
2022-08-05T14:35:14.772Z,31.06
2022-08-05T14:37:48.184Z,30.93
2022-08-05T14:40:17.094Z,31.07
2022-08-05T14:42:44.003Z,31.11
2022-08-05T14:45:10.757Z,31.15
2022-08-05T14:48:04.175Z,30.95
2022-08-05T14:50:25.436Z,30.74
2022-08-05T14:52:56.968Z,30.69
2022-08-05T14:55:26.246Z,30.49
2022-08-05T14:58:10.897Z,30.47
2022-08-05T15:00:38.733Z,30.42
2022-08-05T15:03:05.569Z,30.45
2022-08-05T15:06:07.656Z,30.63
2022-08-05T15:08:57.972Z,30.73
2022-08-05T15:11:09.609Z,30.72
2022-08-05T15:13:45.945Z,30.82
2022-08-05T15:16:16.235Z,30.92
2022-08-05T15:18:43.774Z,30.99
2022-08-05T15:21:14.008Z,31.05
2022-08-05T15:23:40.835Z,31.14
2022-08-05T15:26:07.543Z,30.94
2022-08-05T15:28:35.420Z,30.80
2022-08-05T15:31:09.846Z,30.71
2022-08-05T15:34:18.536Z,30.63
2022-08-05T15:36:24.446Z,30.49
2022-08-05T15:41:00.149Z,30.51
2022-08-05T15:41:58.502Z,30.53
2022-08-05T15:44:27.403Z,30.53
2022-08-05T15:46:55.585Z,30.43
2022-08-05T15:49:40.859Z,30.53
2022-08-05T15:52:16.157Z,30.42
2022-08-05T15:54:55.685Z,30.48
2022-08-05T15:57:23.487Z,30.42
2022-08-05T15:59:54.016Z,30.34
2022-08-05T16:02:27.714Z,30.12
2022-08-05T16:04:55.459Z,30.18
2022-08-05T16:07:22.929Z,30.28
2022-08-05T16:09:49.774Z,30.42
2022-08-05T16:12:16.717Z,30.39
2022-08-05T16:14:46.527Z,30.50
2022-08-05T16:17:13.358Z,30.53
2022-08-05T16:20:04.987Z,30.38
2022-08-05T16:22:27.856Z,30.30
2022-08-05T16:25:07.963Z,30.35
2022-08-05T16:27:59.721Z,30.29
2022-08-05T16:30:26.728Z,30.16
2022-08-05T16:32:55.718Z,30.10
2022-08-05T16:35:28.531Z,29.91
2022-08-05T16:38:02.468Z,29.75
2022-08-05T16:40:51.798Z,29.63
2022-08-05T16:43:23.739Z,29.45
2022-08-05T16:46:04.278Z,29.44
2022-08-05T16:48:39.599Z,29.29
2022-08-05T16:51:09.669Z,29.19
2022-08-05T16:54:05.422Z,29.08
2022-08-05T16:56:27.847Z,28.91
2022-08-05T16:58:54.921Z,28.88
2022-08-05T17:01:21.999Z,28.75
2022-08-05T17:03:50.953Z,28.72
2022-08-05T17:06:17.880Z,28.66
2022-08-05T17:08:52.702Z,28.61
2022-08-05T17:11:25.527Z,28.56
2022-08-05T17:14:00.279Z,28.43
2022-08-05T17:16:36.400Z,28.25
2022-08-05T17:19:07.582Z,28.11
2022-08-05T17:21:37.177Z,28.08
2022-08-05T17:24:19.830Z,27.92
2022-08-05T17:26:52.318Z,27.82
2022-08-05T17:29:22.345Z,27.80
2022-08-05T17:31:58.665Z,27.77
2022-08-05T17:34:29.927Z,27.72
2022-08-05T17:37:00.073Z,27.58
2022-08-05T17:39:33.574Z,27.43
2022-08-05T17:42:18.621Z,27.20
2022-08-05T17:44:51.230Z,26.96
2022-08-05T17:47:22.423Z,27.02
2022-08-05T17:50:03.494Z,27.06
2022-08-05T17:52:53.037Z,27.11
2022-08-05T17:55:34.088Z,26.97
2022-08-05T17:58:01.468Z,26.84
2022-08-05T18:00:29.279Z,26.86
2022-08-05T18:02:56.454Z,26.83
2022-08-05T18:05:23.801Z,26.74
2022-08-05T18:07:54.908Z,26.50
2022-08-05T18:10:23.617Z,26.44
2022-08-05T18:12:50.374Z,26.23
2022-08-05T18:15:17.318Z,26.09
2022-08-05T18:17:59.194Z,25.97
2022-08-05T18:20:31.565Z,25.73
2022-08-05T18:23:00.654Z,25.63
2022-08-05T18:25:35.872Z,25.51
2022-08-05T18:28:05.101Z,25.51
2022-08-05T18:30:32.351Z,25.41
2022-08-05T18:33:00.388Z,25.31
2022-08-05T18:36:00.773Z,25.15
2022-08-05T18:38:19.449Z,25.05
2022-08-05T18:41:56.736Z,24.99
2022-08-05T18:43:42.845Z,24.78
2022-08-05T18:46:20.001Z,24.72
2022-08-05T18:48:52.162Z,24.59
2022-08-05T18:52:04.745Z,24.53
2022-08-05T18:54:09.541Z,24.35
2022-08-05T18:56:36.203Z,24.26
2022-08-05T18:59:17.006Z,24.25
2022-08-05T19:01:57.269Z,24.28
2022-08-05T19:04:25.512Z,24.27
2022-08-05T19:06:53.612Z,24.10
2022-08-05T19:09:21.169Z,24.02
2022-08-05T19:12:00.100Z,23.92
2022-08-05T19:14:44.932Z,23.77
2022-08-05T19:17:16.540Z,23.74
2022-08-05T19:19:44.174Z,23.74
2022-08-05T19:22:17.301Z,23.76
2022-08-05T19:24:54.325Z,23.59
2022-08-05T19:27:30.276Z,23.54
2022-08-05T19:29:57.366Z,23.52
2022-08-05T19:32:26.118Z,23.47
2022-08-05T19:34:55.670Z,23.57
2022-08-05T19:37:35.182Z,23.51
2022-08-05T19:40:10.943Z,23.55
2022-08-05T19:42:37.757Z,23.48
2022-08-05T19:45:06.941Z,23.37
2022-08-05T19:47:34.960Z,23.42
2022-08-05T19:50:04.864Z,23.58
2022-08-05T19:52:34.245Z,23.56
2022-08-05T19:55:07.169Z,23.64
2022-08-05T19:58:07.023Z,23.73
2022-08-05T20:00:36.248Z,23.84
2022-08-05T20:03:08.486Z,23.80
2022-08-05T20:05:42.968Z,23.92
2022-08-05T20:08:10.228Z,23.97
2022-08-05T20:10:36.835Z,24.12
2022-08-05T20:13:03.616Z,24.03
2022-08-05T20:15:50.864Z,24.11
2022-08-05T20:18:32.749Z,24.25
2022-08-05T20:21:00.853Z,24.27
2022-08-05T20:23:39.182Z,24.25
2022-08-05T20:26:16.223Z,24.30
2022-08-05T20:28:45.165Z,24.31
2022-08-05T20:31:11.866Z,24.33
2022-08-05T20:33:38.495Z,24.47
2022-08-05T20:36:10.055Z,24.63
2022-08-05T20:38:36.994Z,24.54
2022-08-05T20:41:05.265Z,24.64
2022-08-05T20:43:58.712Z,24.50
2022-08-05T20:46:24.925Z,24.40
2022-08-05T20:48:51.860Z,24.18
2022-08-05T20:51:19.066Z,23.99
2022-08-05T20:53:56.442Z,23.83
2022-08-05T20:56:29.886Z,23.57
2022-08-05T20:58:59.934Z,23.35
2022-08-05T21:01:38.835Z,23.22
2022-08-05T21:04:05.734Z,23.09
2022-08-05T21:06:33.255Z,22.93
2022-08-05T21:09:00.330Z,22.67
2022-08-05T21:12:07.354Z,22.42
2022-08-05T21:14:13.608Z,21.97
2022-08-05T21:16:41.079Z,21.78
2022-08-05T21:19:07.676Z,21.65
2022-08-05T21:21:43.871Z,21.62
2022-08-05T21:24:16.994Z,21.50
2022-08-05T21:26:58.447Z,21.34
2022-08-05T21:29:26.627Z,21.23
2022-08-05T21:31:58.102Z,21.00
2022-08-05T21:34:24.732Z,20.96
2022-08-05T21:36:51.754Z,20.88
2022-08-05T21:39:26.603Z,20.71
2022-08-05T21:42:01.954Z,20.63
2022-08-05T21:44:30.047Z,20.48
2022-08-05T21:46:58.049Z,20.54
2022-08-05T21:49:58.722Z,20.17
2022-08-05T21:52:21.395Z,20.05
2022-08-05T21:54:51.177Z,19.83
2022-08-05T21:57:31.674Z,19.97
2022-08-05T22:00:11.136Z,20.00
2022-08-05T22:02:38.281Z,19.95
2022-08-05T22:05:05.475Z,19.87
2022-08-05T22:07:39.399Z,19.80
2022-08-05T22:10:26.573Z,19.65
2022-08-05T22:12:57.253Z,19.24
2022-08-05T22:16:02.653Z,19.09
2022-08-05T22:18:11.136Z,19.20
2022-08-05T22:20:39.042Z,19.33
2022-08-05T22:23:17.009Z,19.34
2022-08-05T22:26:09.996Z,19.34
2022-08-05T22:28:33.710Z,19.28
2022-08-05T22:31:05.274Z,19.31
2022-08-05T22:33:56.890Z,19.38
2022-08-05T22:36:19.088Z,19.37
2022-08-05T22:38:50.471Z,19.30
2022-08-05T22:41:26.291Z,19.35
2022-08-05T22:44:05.114Z,19.26
2022-08-05T22:46:31.930Z,18.80
2022-08-05T22:48:59.302Z,18.83
2022-08-05T22:52:02.573Z,18.76
2022-08-05T22:54:13.062Z,18.72
2022-08-05T22:56:40.711Z,18.89
2022-08-05T22:59:45.304Z,18.99
2022-08-05T23:02:04.369Z,19.04
2022-08-05T23:04:32.924Z,19.01
2022-08-05T23:06:59.540Z,18.92
2022-08-05T23:09:27.652Z,18.96
2022-08-05T23:12:12.924Z,19.03
2022-08-05T23:14:39.540Z,19.12
2022-08-05T23:17:10.415Z,19.23
2022-08-05T23:19:46.625Z,19.21
2022-08-05T23:22:19.270Z,19.16
2022-08-05T23:24:53.780Z,19.27
2022-08-05T23:27:20.792Z,19.30
2022-08-05T23:29:50.657Z,19.14
2022-08-05T23:32:17.549Z,19.20
2022-08-05T23:34:49.888Z,19.00
2022-08-05T23:37:17.824Z,18.88
2022-08-05T23:39:53.660Z,18.88
2022-08-05T23:42:23.483Z,18.90
2022-08-05T23:44:56.256Z,18.98
2022-08-05T23:47:25.145Z,19.20
2022-08-05T23:49:52.189Z,19.21
2022-08-05T23:52:25.267Z,19.26
2022-08-05T23:54:53.372Z,19.23
2022-08-05T23:57:20.054Z,19.32
